createdAt,value
2024-04-23T00:00:01.995Z,3.1
2024-04-23T00:06:05.986Z,2.8
2024-04-23T00:09:07.999Z,2.9
2024-04-23T00:12:09.902Z,3.2
2024-04-23T00:15:11.792Z,3.2
2024-04-23T00:18:13.841Z,5.3
2024-04-23T00:21:15.765Z,5
2024-04-23T00:24:17.700Z,3.8
2024-04-23T00:27:19.626Z,3.6
2024-04-23T00:30:21.562Z,3.2
2024-04-23T00:33:23.564Z,3.3
2024-04-23T00:36:25.525Z,3.3
2024-04-23T00:39:27.434Z,3.1
2024-04-23T00:45:31.385Z,3.7
2024-04-23T00:48:33.428Z,3.4
2024-04-23T00:51:35.346Z,3.4
2024-04-23T00:54:37.239Z,3.5
2024-04-23T00:57:39.286Z,3
2024-04-23T01:00:41.234Z,3.1
2024-04-23T01:03:43.151Z,3.3
2024-04-23T01:06:45.113Z,2.7
2024-04-23T01:09:47.100Z,3
2024-04-23T01:12:49.053Z,3
2024-04-23T01:15:50.919Z,3
2024-04-23T01:18:52.875Z,2.8
2024-04-23T01:21:54.880Z,3
2024-04-23T01:24:56.772Z,3
2024-04-23T01:27:58.873Z,7.8
2024-04-23T01:31:00.801Z,5.9
2024-04-23T01:34:02.772Z,4.6
2024-04-23T01:37:04.717Z,4.4
2024-04-23T01:40:06.655Z,4.1
2024-04-23T01:43:08.594Z,3.4
2024-04-23T01:46:10.556Z,3
2024-04-23T01:49:12.463Z,3.5
2024-04-23T01:52:14.467Z,3.2
2024-04-23T01:55:16.374Z,3.2
2024-04-23T01:58:18.382Z,2.8
2024-04-23T02:01:20.279Z,2.7
2024-04-23T02:04:22.220Z,3.1
2024-04-23T02:07:24.365Z,2.9
2024-04-23T02:10:26.350Z,3.2
2024-04-23T02:13:28.239Z,3
2024-04-23T02:16:30.200Z,3.1
2024-04-23T02:19:32.155Z,3
2024-04-23T02:22:34.184Z,2.8
2024-04-23T02:25:36.108Z,3.4
2024-04-23T02:28:37.997Z,2.7
2024-04-23T02:31:39.969Z,2.8
2024-04-23T02:34:41.926Z,2.6
2024-04-23T02:37:43.909Z,3.1
2024-04-23T02:40:45.853Z,2.9
2024-04-23T02:43:47.923Z,3
2024-04-23T02:46:49.744Z,2.5
2024-04-23T02:49:51.776Z,2.7
2024-04-23T02:52:53.708Z,2.8
2024-04-23T02:55:55.678Z,2.5
2024-04-23T02:58:57.549Z,2.7
2024-04-23T03:01:59.537Z,2.8
2024-04-23T03:05:01.486Z,2.5
2024-04-23T03:08:03.501Z,2.6
2024-04-23T03:11:05.496Z,3
2024-04-23T03:14:07.286Z,2.5
2024-04-23T03:17:09.303Z,2.8
2024-04-23T03:20:11.258Z,2.6
2024-04-23T03:23:13.189Z,3.2
2024-04-23T03:26:15.193Z,3.1
2024-04-23T03:29:17.122Z,3
2024-04-23T03:32:19.034Z,2.5
2024-04-23T03:35:20.963Z,2.8
2024-04-23T03:38:22.927Z,3
2024-04-23T03:41:24.923Z,3
2024-04-23T03:44:26.875Z,2.8
2024-04-23T03:47:28.848Z,2.9
2024-04-23T03:50:30.740Z,2.8
2024-04-23T03:53:32.679Z,2.6
2024-04-23T03:56:34.723Z,2.5
2024-04-23T03:59:36.760Z,2.8
2024-04-23T04:02:38.811Z,3.3
2024-04-23T04:05:40.716Z,2.8
2024-04-23T04:08:42.639Z,3
2024-04-23T04:11:44.647Z,2.9
2024-04-23T04:14:46.514Z,3.1
2024-04-23T04:17:48.602Z,2.7
2024-04-23T04:20:50.472Z,2.9
2024-04-23T04:23:52.440Z,3
2024-04-23T04:26:54.389Z,2.7
2024-04-23T04:29:56.291Z,2.8
2024-04-23T04:36:00.249Z,2.9
2024-04-23T04:39:02.198Z,3
2024-04-23T04:42:04.196Z,2.7
2024-04-23T04:45:06.143Z,2.9
2024-04-23T04:48:08.199Z,2.7
2024-04-23T04:51:10.061Z,2.7
2024-04-23T04:54:11.968Z,2.7
2024-04-23T04:57:13.954Z,3.3
2024-04-23T05:00:15.838Z,2.6
2024-04-23T05:03:17.863Z,2.8
2024-04-23T05:06:19.744Z,3
2024-04-23T05:09:21.702Z,2.4
2024-04-23T05:15:25.595Z,2.8
2024-04-23T05:18:27.646Z,2.7
2024-04-23T05:21:29.599Z,2.3
2024-04-23T05:24:31.477Z,2.8
2024-04-23T05:27:33.473Z,2.7
2024-04-23T05:30:35.394Z,2.5
2024-04-23T05:33:37.472Z,2.4
2024-04-23T05:36:39.412Z,2.6
2024-04-23T05:39:41.271Z,2.7
2024-04-23T05:45:45.196Z,2.8
2024-04-23T05:48:47.104Z,2.7
2024-04-23T05:51:49.125Z,2.6
2024-04-23T05:54:51.038Z,2.8
2024-04-23T05:57:53.018Z,2.2
2024-04-23T06:00:54.982Z,2.5
2024-04-23T06:03:56.909Z,2.7
2024-04-23T06:06:58.918Z,2.8
2024-04-23T06:10:00.884Z,2.7
2024-04-23T06:13:02.755Z,2.7
2024-04-23T06:16:04.761Z,2.8
2024-04-23T06:19:06.711Z,2.9
2024-04-23T06:22:08.629Z,2.4
2024-04-23T06:25:10.575Z,2.3
2024-04-23T06:28:12.549Z,2.2
2024-04-23T06:31:14.522Z,2.9
2024-04-23T06:34:16.421Z,2.2
2024-04-23T06:37:18.381Z,2.5
2024-04-23T06:40:20.355Z,2.4
2024-04-23T06:43:22.287Z,2.1
2024-04-23T06:46:24.276Z,2.3
2024-04-23T06:49:26.213Z,2
2024-04-23T06:52:28.198Z,2.1
2024-04-23T06:55:30.134Z,2.2
2024-04-23T06:58:32.179Z,2.1
2024-04-23T07:01:34.193Z,1.8
2024-04-23T07:04:36.081Z,2.5
2024-04-23T07:07:38.063Z,2
2024-04-23T07:10:40.081Z,2.1
2024-04-23T07:13:41.971Z,2.3
2024-04-23T07:16:44.062Z,2
2024-04-23T07:19:47.007Z,1.8
2024-04-23T07:22:47.867Z,1.9
2024-04-23T07:25:49.899Z,1.9
2024-04-23T07:28:51.744Z,2
2024-04-23T07:31:53.760Z,2.5
2024-04-23T07:34:55.699Z,1.9
2024-04-23T07:37:57.639Z,2
2024-04-23T07:40:59.583Z,2
2024-04-23T07:44:01.524Z,2
2024-04-23T07:47:03.621Z,1.7
2024-04-23T07:50:05.396Z,2.2
2024-04-23T07:53:07.384Z,1.6
2024-04-23T07:56:09.283Z,2.1
2024-04-23T07:59:11.249Z,2.2
2024-04-23T08:02:13.287Z,2
2024-04-23T08:05:15.176Z,1.7
2024-04-23T08:08:17.072Z,1.5
2024-04-23T08:11:19.515Z,1.9
2024-04-23T08:14:21.033Z,1.8
2024-04-23T08:17:23.071Z,2.2
2024-04-23T08:20:24.885Z,2
2024-04-23T08:23:26.870Z,1.7
2024-04-23T08:26:28.867Z,1.8
2024-04-23T08:29:30.773Z,1.8
2024-04-23T08:32:32.777Z,2
2024-04-23T08:35:34.687Z,1.6
2024-04-23T08:38:36.616Z,1.9
2024-04-23T08:41:40.054Z,1.7
2024-04-23T08:44:40.603Z,1.6
2024-04-23T08:47:42.666Z,1.9
2024-04-23T08:50:44.564Z,1.7
2024-04-23T08:53:46.513Z,1.7
2024-04-23T08:56:48.573Z,1.8
2024-04-23T08:59:51.546Z,1.8
2024-04-23T09:02:52.434Z,2.3
2024-04-23T09:05:54.384Z,1.8
2024-04-23T09:08:56.291Z,1.9
2024-04-23T09:11:58.230Z,1.7
2024-04-23T09:15:00.907Z,2.3
2024-04-23T09:18:02.187Z,2.1
2024-04-23T09:21:04.138Z,1.8
2024-04-23T09:24:06.065Z,1.9
2024-04-23T09:27:08.055Z,2.4
2024-04-23T09:30:09.976Z,1.9
2024-04-23T09:36:13.937Z,1.7
2024-04-23T09:39:15.840Z,1.5
2024-04-23T09:42:17.886Z,1.5
2024-04-23T09:45:20.230Z,1.6
2024-04-23T09:48:21.896Z,1.5
2024-04-23T09:51:23.750Z,1.7
2024-04-23T09:54:25.702Z,1.4
2024-04-23T09:57:27.716Z,1.6
2024-04-23T10:00:29.683Z,1.5
2024-04-23T10:03:31.817Z,2.2
2024-04-23T10:06:33.557Z,1.6
2024-04-23T10:09:35.512Z,1.4
2024-04-23T10:15:39.469Z,1.3
2024-04-23T10:18:41.500Z,1.8
2024-04-23T10:21:43.412Z,1.6
2024-04-23T10:24:45.307Z,1.5
2024-04-23T10:27:47.276Z,1.9
2024-04-23T10:30:49.276Z,2
2024-04-23T10:33:51.256Z,2
2024-04-23T10:36:53.329Z,1.4
2024-04-23T10:39:55.086Z,1.7
2024-04-23T10:42:57.066Z,1.5
2024-04-23T10:45:59.087Z,1.7
2024-04-23T10:49:01.069Z,1.5
2024-04-23T10:52:02.970Z,1.4
2024-04-23T10:55:04.951Z,1.8
2024-04-23T10:58:07.003Z,1.8
2024-04-23T11:01:09.196Z,1.9
2024-04-23T11:04:11.019Z,2.1
2024-04-23T11:07:12.950Z,2
2024-04-23T11:10:14.909Z,1.5
2024-04-23T11:13:16.807Z,1.8
2024-04-23T11:16:19.036Z,1.3
2024-04-23T11:19:20.781Z,1.4
2024-04-23T11:22:22.656Z,1.6
2024-04-23T11:25:24.633Z,1.2
2024-04-23T11:28:26.567Z,1
2024-04-23T11:31:28.635Z,1.2
2024-04-23T11:34:30.513Z,1.1
2024-04-23T11:37:32.537Z,1.1
2024-04-23T11:40:34.470Z,1.4
2024-04-23T11:43:36.498Z,1.4
2024-04-23T11:46:38.473Z,1.3
2024-04-23T11:49:40.457Z,1.2
2024-04-23T11:52:42.428Z,1.1
2024-04-23T11:55:44.372Z,1.1
2024-04-23T11:58:46.303Z,0.9
2024-04-23T12:01:48.356Z,1.1
2024-04-23T12:04:50.479Z,1.4
2024-04-23T12:07:52.304Z,1.1
2024-04-23T12:10:54.225Z,1.2
2024-04-23T12:13:56.129Z,1.4
2024-04-23T12:16:58.115Z,0.9
2024-04-23T12:20:00.596Z,1
2024-04-23T12:23:02.173Z,1
2024-04-23T12:26:04.195Z,1
2024-04-23T12:29:06.131Z,1
2024-04-23T12:32:08.206Z,1.1
2024-04-23T12:35:10.321Z,0.9
2024-04-23T12:38:12.255Z,0.8
2024-04-23T12:41:14.062Z,0.9
2024-04-23T12:44:16.040Z,1
2024-04-23T12:47:18.014Z,1
2024-04-23T12:50:20.041Z,1.2
2024-04-23T12:53:22.108Z,0.9
2024-04-23T12:56:23.909Z,1.2
2024-04-23T12:59:25.921Z,1.7
2024-04-23T13:02:27.908Z,1.4
2024-04-23T13:05:29.871Z,1.5
2024-04-23T13:08:31.820Z,1.4
2024-04-23T13:11:33.876Z,1.1
2024-04-23T13:14:35.737Z,1.1
2024-04-23T13:17:37.761Z,1.3
2024-04-23T13:20:39.794Z,1.4
2024-04-23T13:23:41.610Z,1.4
2024-04-23T13:26:43.567Z,1.1
2024-04-23T13:29:45.789Z,1.1
2024-04-23T13:32:47.636Z,1.6
2024-04-23T13:35:49.480Z,1.4
2024-04-23T13:38:51.519Z,1.5
2024-04-23T13:41:53.411Z,1.7
2024-04-23T13:44:55.310Z,1.2
2024-04-23T13:47:57.356Z,1.3
2024-04-23T13:50:59.234Z,1.1
2024-04-23T13:54:01.421Z,1.3
2024-04-23T13:57:03.280Z,1.1
2024-04-23T14:00:05.530Z,1.5
2024-04-23T14:06:09.274Z,1.2
2024-04-23T14:09:11.234Z,1
2024-04-23T14:12:13.482Z,1.1
2024-04-23T14:15:15.423Z,1.5
2024-04-23T14:18:17.453Z,1.3
2024-04-23T14:21:19.633Z,1.3
2024-04-23T14:24:21.331Z,1.6
2024-04-23T14:27:23.253Z,1.4
2024-04-23T14:30:25.334Z,1.3
2024-04-23T14:33:27.362Z,1.3
2024-04-23T14:36:29.320Z,1.5
2024-04-23T14:39:31.283Z,1.3
2024-04-23T14:45:35.211Z,1
2024-04-23T14:48:37.242Z,1.2
2024-04-23T14:51:39.216Z,1.4
2024-04-23T14:54:41.094Z,1.2
2024-04-23T14:57:43.085Z,1.1
2024-04-23T15:00:45.055Z,1
2024-04-23T15:03:47.188Z,1.3
2024-04-23T15:06:49.061Z,1.1
2024-04-23T15:09:50.958Z,1.7
2024-04-23T15:12:53.007Z,1.2
2024-04-23T15:15:55.011Z,1.3
2024-04-23T15:18:57.039Z,1.6
2024-04-23T15:21:58.907Z,1.4
2024-04-23T15:25:00.852Z,1.2
2024-04-23T15:28:02.837Z,1.6
2024-04-23T15:31:04.724Z,1.4
2024-04-23T15:34:06.686Z,1.4
2024-04-23T15:37:08.728Z,1.5
2024-04-23T15:40:10.676Z,1
2024-04-23T15:43:12.737Z,1.5
2024-04-23T15:46:14.761Z,1.4
2024-04-23T15:49:16.796Z,1.5
2024-04-23T15:52:18.907Z,1.6
2024-04-23T15:55:20.843Z,1.2
2024-04-23T15:58:22.918Z,1.3
2024-04-23T16:01:25.042Z,1.3
2024-04-23T16:04:27.070Z,1.3
2024-04-23T16:07:29.058Z,1.1
2024-04-23T16:10:31.130Z,1.3
2024-04-23T16:13:33.006Z,1.2
2024-04-23T16:16:35.012Z,1.4
2024-04-23T16:19:36.945Z,1.3
2024-04-23T16:22:39.003Z,1.3
2024-04-23T16:25:40.894Z,1.7
2024-04-23T16:28:42.946Z,1
2024-04-23T16:31:44.853Z,1.2
2024-04-23T16:34:46.845Z,1.2
2024-04-23T16:37:48.795Z,1.2
2024-04-23T16:40:50.875Z,1.3
2024-04-23T16:43:52.738Z,1.2
2024-04-23T16:46:54.612Z,1.3
2024-04-23T16:49:56.697Z,1.2
2024-04-23T16:52:58.738Z,1.8
2024-04-23T16:56:00.680Z,1.4
2024-04-23T16:59:02.506Z,1.4
2024-04-23T17:02:04.506Z,1.2
2024-04-23T17:05:06.497Z,1
2024-04-23T17:08:08.420Z,1.4
2024-04-23T17:11:10.356Z,1.5
2024-04-23T17:14:12.331Z,0.9
2024-04-23T17:17:14.255Z,1.2
2024-04-23T17:20:16.223Z,1.1
2024-04-23T17:23:18.347Z,0.8
2024-04-23T17:26:20.184Z,0.8
2024-04-23T17:29:22.227Z,0.9
2024-04-23T17:32:24.229Z,0.8
2024-04-23T17:35:26.140Z,0.9
2024-04-23T17:38:28.129Z,1
2024-04-23T17:41:30.007Z,1.2
2024-04-23T17:44:31.997Z,1.2
2024-04-23T17:47:34.967Z,1.1
2024-04-23T17:50:36.032Z,1.2
2024-04-23T17:53:38.048Z,1
2024-04-23T17:56:40.006Z,1
2024-04-23T17:59:41.930Z,1.7
2024-04-23T18:02:43.925Z,1.8
2024-04-23T18:05:45.842Z,1.7
2024-04-23T18:08:47.899Z,1.3
2024-04-23T18:11:49.867Z,1.2
2024-04-23T18:14:51.799Z,1.2
2024-04-23T18:17:56.044Z,1.2
2024-04-23T18:20:55.747Z,1
2024-04-23T18:23:57.711Z,1.1
2024-04-23T18:26:59.722Z,1.1
2024-04-23T18:30:01.688Z,1.2
2024-04-23T18:36:05.601Z,1.2
2024-04-23T18:39:07.551Z,1.3
2024-04-23T18:42:09.460Z,1
2024-04-23T18:45:11.453Z,0.9
2024-04-23T18:48:13.447Z,1
2024-04-23T18:51:15.322Z,1
2024-04-23T18:54:17.290Z,1.1
2024-04-23T18:57:19.208Z,1.1
2024-04-23T19:00:21.149Z,1.3
2024-04-23T19:03:23.253Z,1.1
2024-04-23T19:06:25.066Z,0.9
2024-04-23T19:09:27.063Z,1.1
2024-04-23T19:15:31.001Z,1
2024-04-23T19:18:32.982Z,1.2
2024-04-23T19:21:34.919Z,1
2024-04-23T19:24:36.899Z,1.3
2024-04-23T19:27:38.852Z,1.1
2024-04-23T19:30:40.800Z,1.2
2024-04-23T19:33:42.879Z,1.6
2024-04-23T19:36:44.658Z,1.3
2024-04-23T19:39:46.663Z,1.6
2024-04-23T19:42:49.695Z,1.6
2024-04-23T19:45:50.532Z,1.6
2024-04-23T19:48:52.673Z,1.3
2024-04-23T19:51:54.448Z,1.3
2024-04-23T19:54:56.441Z,1.7
2024-04-23T19:57:58.415Z,1.6
2024-04-23T20:01:00.421Z,1.5
2024-04-23T20:04:02.381Z,1.2
2024-04-23T20:07:04.231Z,2
2024-04-23T20:10:06.255Z,1.7
2024-04-23T20:13:08.193Z,1.6
2024-04-23T20:16:10.106Z,2.2
2024-04-23T20:19:12.090Z,1.8
2024-04-23T20:22:14.071Z,2.1
2024-04-23T20:25:15.976Z,1.9
2024-04-23T20:28:17.991Z,1.8
2024-04-23T20:31:19.959Z,1.8
2024-04-23T20:34:22.262Z,2.5
2024-04-23T20:37:23.811Z,3
2024-04-23T20:40:25.816Z,2.1
2024-04-23T20:43:27.803Z,2
2024-04-23T20:46:29.709Z,2.1
2024-04-23T20:49:31.707Z,2.2
2024-04-23T20:52:33.643Z,2.9
2024-04-23T20:55:35.595Z,2.7
2024-04-23T20:58:37.594Z,2.9
2024-04-23T21:01:39.653Z,2.3
2024-04-23T21:04:41.793Z,2.3
2024-04-23T21:07:43.658Z,2.8
2024-04-23T21:10:45.551Z,2.7
2024-04-23T21:13:47.561Z,2.9
2024-04-23T21:16:49.463Z,2.4
2024-04-23T21:19:51.433Z,2.5
2024-04-23T21:22:53.439Z,2.6
2024-04-23T21:25:55.371Z,3
2024-04-23T21:28:57.319Z,2.9
2024-04-23T21:31:59.265Z,3.1
2024-04-23T21:35:01.354Z,2.7
2024-04-23T21:38:03.241Z,3
2024-04-23T21:41:05.102Z,2.5
2024-04-23T21:44:07.098Z,2.8
2024-04-23T21:47:09.023Z,3
2024-04-23T21:50:10.971Z,3.1
2024-04-23T21:53:12.881Z,2.8
2024-04-23T21:56:14.970Z,3.5
2024-04-23T21:59:16.898Z,2.8
2024-04-23T22:02:18.741Z,2.9
2024-04-23T22:05:20.793Z,3.4
2024-04-23T22:08:22.767Z,4.2
2024-04-23T22:11:24.670Z,4.2
2024-04-23T22:14:26.694Z,3.7
2024-04-23T22:17:28.566Z,3.7
2024-04-23T22:20:30.474Z,3.4
2024-04-23T22:23:32.477Z,4.4
2024-04-23T22:26:34.369Z,3.3
2024-04-23T22:29:36.396Z,3
2024-04-23T22:32:38.424Z,3.3
2024-04-23T22:35:40.276Z,3.7
2024-04-23T22:38:42.289Z,4.2
2024-04-23T22:41:44.133Z,3.7
2024-04-23T22:44:46.164Z,3.7
2024-04-23T22:47:48.195Z,3.4
2024-04-23T22:50:50.080Z,3.4
2024-04-23T22:53:52.349Z,3.4
2024-04-23T22:56:54.032Z,3.4
2024-04-23T22:59:56.005Z,3.5
2024-04-23T23:05:59.849Z,3.9
2024-04-23T23:09:01.917Z,3.5
2024-04-23T23:12:03.841Z,3.2
2024-04-23T23:15:05.804Z,3.1
2024-04-23T23:18:07.743Z,3.4
2024-04-23T23:21:09.625Z,4
2024-04-23T23:24:11.569Z,3.5
2024-04-23T23:27:13.570Z,3.5
2024-04-23T23:30:15.580Z,3.5
2024-04-23T23:36:19.444Z,2.9
2024-04-23T23:39:21.397Z,3.7
2024-04-23T23:45:27.513Z,4.3
2024-04-23T23:48:27.307Z,3.8
2024-04-23T23:51:29.178Z,3.9
2024-04-23T23:54:31.177Z,4.3
2024-04-23T23:57:33.141Z,4.7
